Olne, Belgium
Current Conditions -  °F | °C
As of 4:20 AM on Thursday 23 Oct 2014 (Local Time) from EBLG Reporting Station
Broken Clouds Broken Clouds  
Wind Chill: 42°   Ceiling: 4500
Heat Index: 46°   Visibility: 6mi
Dew Point: 45°   Wind: 8mph
Humidity: 93%   Direction: 230°SW
Pressure: 30.21"   Gusts: NA
Location:  50.59°N, 5.75°E
Report Text: EBLG 230220Z 23007KT 9000 BKN045 08/07 Q1023 NOSIG
Loading
Personal Weather Stations






























Interactive Weather Map
Tropical Storm Tracking
New forecast layout! Learn more

10-Day Weather Forecast

Advertisements
Track Severe Weather on mobile